sensor_id;sensor_type;location;lat;lon;timestamp;temperature;humidity
5938;DHT22;2994;51.220;4.412;2022-12-11T00:01:21;5.46;72.53
5938;DHT22;2994;51.220;4.412;2022-12-11T00:03:47;5.48;72.44
5938;DHT22;2994;51.220;4.412;2022-12-11T00:06:14;5.51;72.45
5938;DHT22;2994;51.220;4.412;2022-12-11T00:08:40;5.50;72.55
5938;DHT22;2994;51.220;4.412;2022-12-11T00:11:12;5.52;72.54
5938;DHT22;2994;51.220;4.412;2022-12-11T00:13:38;5.42;72.99
5938;DHT22;2994;51.220;4.412;2022-12-11T00:16:03;5.43;72.68
5938;DHT22;2994;51.220;4.412;2022-12-11T00:18:29;5.48;72.28
5938;DHT22;2994;51.220;4.412;2022-12-11T00:20:54;5.51;72.35
5938;DHT22;2994;51.220;4.412;2022-12-11T00:23:20;5.50;72.22
5938;DHT22;2994;51.220;4.412;2022-12-11T00:25:46;5.48;72.35
5938;DHT22;2994;51.220;4.412;2022-12-11T00:28:14;5.50;72.23
5938;DHT22;2994;51.220;4.412;2022-12-11T00:30:40;5.50;72.04
5938;DHT22;2994;51.220;4.412;2022-12-11T00:33:06;5.49;72.06
5938;DHT22;2994;51.220;4.412;2022-12-11T00:35:32;5.52;71.88
5938;DHT22;2994;51.220;4.412;2022-12-11T00:37:57;5.51;71.96
5938;DHT22;2994;51.220;4.412;2022-12-11T00:40:23;5.51;71.93
5938;DHT22;2994;51.220;4.412;2022-12-11T00:42:48;5.48;71.96
5938;DHT22;2994;51.220;4.412;2022-12-11T00:45:14;5.52;71.86
5938;DHT22;2994;51.220;4.412;2022-12-11T00:47:39;5.47;71.90
5938;DHT22;2994;51.220;4.412;2022-12-11T00:50:05;5.49;71.84
5938;DHT22;2994;51.220;4.412;2022-12-11T00:52:31;5.48;72.04
5938;DHT22;2994;51.220;4.412;2022-12-11T00:54:56;5.54;71.67
5938;DHT22;2994;51.220;4.412;2022-12-11T00:57:22;5.54;71.57
5938;DHT22;2994;51.220;4.412;2022-12-11T00:59:47;5.55;71.42
5938;DHT22;2994;51.220;4.412;2022-12-11T01:02:13;5.55;71.45
5938;DHT22;2994;51.220;4.412;2022-12-11T01:04:38;5.56;71.22
5938;DHT22;2994;51.220;4.412;2022-12-11T01:07:03;5.54;71.33
5938;DHT22;2994;51.220;4.412;2022-12-11T01:09:29;5.56;71.17
5938;DHT22;2994;51.220;4.412;2022-12-11T01:12:13;5.60;71.22
5938;DHT22;2994;51.220;4.412;2022-12-11T01:14:38;5.56;71.10
5938;DHT22;2994;51.220;4.412;2022-12-11T01:17:03;5.56;71.01
5938;DHT22;2994;51.220;4.412;2022-12-11T01:19:29;5.60;71.06
5938;DHT22;2994;51.220;4.412;2022-12-11T01:21:54;5.55;70.97
5938;DHT22;2994;51.220;4.412;2022-12-11T01:24:20;5.45;71.05
5938;DHT22;2994;51.220;4.412;2022-12-11T01:26:45;5.47;70.72
5938;DHT22;2994;51.220;4.412;2022-12-11T01:29:11;5.42;71.06
5938;DHT22;2994;51.220;4.412;2022-12-11T01:31:36;5.47;71.17
5938;DHT22;2994;51.220;4.412;2022-12-11T01:34:02;5.47;71.26
5938;DHT22;2994;51.220;4.412;2022-12-11T01:36:28;5.52;71.03
5938;DHT22;2994;51.220;4.412;2022-12-11T01:38:53;5.54;70.93
5938;DHT22;2994;51.220;4.412;2022-12-11T01:41:19;5.55;70.58
5938;DHT22;2994;51.220;4.412;2022-12-11T01:44:03;5.55;70.75
5938;DHT22;2994;51.220;4.412;2022-12-11T01:46:31;5.49;70.67
5938;DHT22;2994;51.220;4.412;2022-12-11T01:48:58;5.55;70.27
5938;DHT22;2994;51.220;4.412;2022-12-11T01:51:24;5.52;70.18
5938;DHT22;2994;51.220;4.412;2022-12-11T01:53:55;5.54;70.13
5938;DHT22;2994;51.220;4.412;2022-12-11T01:56:21;5.56;70.25
5938;DHT22;2994;51.220;4.412;2022-12-11T01:58:53;5.55;70.39
5938;DHT22;2994;51.220;4.412;2022-12-11T02:01:41;5.55;70.62
5938;DHT22;2994;51.220;4.412;2022-12-11T02:04:09;5.55;70.25
5938;DHT22;2994;51.220;4.412;2022-12-11T02:06:36;5.59;70.35
5938;DHT22;2994;51.220;4.412;2022-12-11T02:09:05;5.60;70.47
5938;DHT22;2994;51.220;4.412;2022-12-11T02:14:43;5.56;70.61
5938;DHT22;2994;51.220;4.412;2022-12-11T02:17:31;5.57;70.35
5938;DHT22;2994;51.220;4.412;2022-12-11T02:20:12;5.62;70.35
5938;DHT22;2994;51.220;4.412;2022-12-11T02:25:52;5.63;70.71
5938;DHT22;2994;51.220;4.412;2022-12-11T02:31:00;5.56;70.48
5938;DHT22;2994;51.220;4.412;2022-12-11T02:33:42;5.61;70.22
5938;DHT22;2994;51.220;4.412;2022-12-11T02:36:08;5.63;70.07
5938;DHT22;2994;51.220;4.412;2022-12-11T02:38:37;5.64;70.26
5938;DHT22;2994;51.220;4.412;2022-12-11T02:41:04;5.65;70.35
5938;DHT22;2994;51.220;4.412;2022-12-11T02:43:32;5.65;70.41
5938;DHT22;2994;51.220;4.412;2022-12-11T02:45:59;5.66;70.42
5938;DHT22;2994;51.220;4.412;2022-12-11T02:48:25;5.68;70.28
5938;DHT22;2994;51.220;4.412;2022-12-11T02:50:54;5.69;70.31
5938;DHT22;2994;51.220;4.412;2022-12-11T02:53:25;5.68;70.51
5938;DHT22;2994;51.220;4.412;2022-12-11T02:55:58;5.70;70.45
5938;DHT22;2994;51.220;4.412;2022-12-11T02:58:28;5.71;70.23
5938;DHT22;2994;51.220;4.412;2022-12-11T03:00:54;5.71;70.28
5938;DHT22;2994;51.220;4.412;2022-12-11T03:03:20;5.72;70.46
5938;DHT22;2994;51.220;4.412;2022-12-11T03:05:46;5.71;70.35
5938;DHT22;2994;51.220;4.412;2022-12-11T03:08:12;5.74;70.39
5938;DHT22;2994;51.220;4.412;2022-12-11T03:10:42;5.74;70.29
5938;DHT22;2994;51.220;4.412;2022-12-11T03:13:07;5.72;70.45
5938;DHT22;2994;51.220;4.412;2022-12-11T03:15:45;5.72;70.42
5938;DHT22;2994;51.220;4.412;2022-12-11T03:21:41;5.71;70.48
5938;DHT22;2994;51.220;4.412;2022-12-11T03:24:19;5.72;70.35
5938;DHT22;2994;51.220;4.412;2022-12-11T03:26:53;5.74;70.36
5938;DHT22;2994;51.220;4.412;2022-12-11T03:29:22;5.71;70.38
5938;DHT22;2994;51.220;4.412;2022-12-11T03:31:56;5.71;70.45
5938;DHT22;2994;51.220;4.412;2022-12-11T03:34:40;5.72;70.55
5938;DHT22;2994;51.220;4.412;2022-12-11T03:37:07;5.71;70.61
5938;DHT22;2994;51.220;4.412;2022-12-11T03:39:48;5.72;70.63
5938;DHT22;2994;51.220;4.412;2022-12-11T03:42:16;5.74;70.43
5938;DHT22;2994;51.220;4.412;2022-12-11T03:44:45;5.74;70.23
5938;DHT22;2994;51.220;4.412;2022-12-11T03:47:15;5.72;70.47
5938;DHT22;2994;51.220;4.412;2022-12-11T03:49:43;5.75;70.29
5938;DHT22;2994;51.220;4.412;2022-12-11T03:52:11;5.72;70.38
5938;DHT22;2994;51.220;4.412;2022-12-11T03:54:39;5.74;70.32
5938;DHT22;2994;51.220;4.412;2022-12-11T03:57:07;5.72;70.35
5938;DHT22;2994;51.220;4.412;2022-12-11T03:59:34;5.75;70.26
5938;DHT22;2994;51.220;4.412;2022-12-11T04:01:59;5.77;70.19
5938;DHT22;2994;51.220;4.412;2022-12-11T04:04:25;5.76;70.26
5938;DHT22;2994;51.220;4.412;2022-12-11T04:06:50;5.77;70.30
5938;DHT22;2994;51.220;4.412;2022-12-11T04:09:16;5.77;70.24
5938;DHT22;2994;51.220;4.412;2022-12-11T04:11:41;5.78;70.29
5938;DHT22;2994;51.220;4.412;2022-12-11T04:14:12;5.76;70.46
5938;DHT22;2994;51.220;4.412;2022-12-11T04:16:57;5.79;70.17
5938;DHT22;2994;51.220;4.412;2022-12-11T04:19:24;5.77;70.19
5938;DHT22;2994;51.220;4.412;2022-12-11T04:22:12;5.78;70.29
5938;DHT22;2994;51.220;4.412;2022-12-11T04:25:01;5.80;70.25
5938;DHT22;2994;51.220;4.412;2022-12-11T04:27:27;5.82;70.26
5938;DHT22;2994;51.220;4.412;2022-12-11T04:30:15;5.82;70.20
5938;DHT22;2994;51.220;4.412;2022-12-11T04:32:40;5.81;70.29
5938;DHT22;2994;51.220;4.412;2022-12-11T04:35:07;5.79;70.32
5938;DHT22;2994;51.220;4.412;2022-12-11T04:37:33;5.83;70.32
5938;DHT22;2994;51.220;4.412;2022-12-11T04:39:58;5.84;70.31
5938;DHT22;2994;51.220;4.412;2022-12-11T04:42:24;5.83;70.23
5938;DHT22;2994;51.220;4.412;2022-12-11T04:44:49;5.83;70.27
5938;DHT22;2994;51.220;4.412;2022-12-11T04:47:15;5.82;70.26
5938;DHT22;2994;51.220;4.412;2022-12-11T04:49:40;5.84;70.26
5938;DHT22;2994;51.220;4.412;2022-12-11T04:52:05;5.86;70.34
5938;DHT22;2994;51.220;4.412;2022-12-11T04:54:32;5.84;70.45
5938;DHT22;2994;51.220;4.412;2022-12-11T04:56:57;5.85;70.35
5938;DHT22;2994;51.220;4.412;2022-12-11T04:59:22;5.85;70.32
5938;DHT22;2994;51.220;4.412;2022-12-11T05:01:48;5.89;70.32
5938;DHT22;2994;51.220;4.412;2022-12-11T05:04:13;5.90;70.24
5938;DHT22;2994;51.220;4.412;2022-12-11T05:06:39;5.91;70.32
5938;DHT22;2994;51.220;4.412;2022-12-11T05:09:04;5.92;70.24
5938;DHT22;2994;51.220;4.412;2022-12-11T05:11:30;5.92;70.23
5938;DHT22;2994;51.220;4.412;2022-12-11T05:13:55;5.92;70.20
5938;DHT22;2994;51.220;4.412;2022-12-11T05:16:20;5.94;70.35
5938;DHT22;2994;51.220;4.412;2022-12-11T05:18:46;5.93;70.19
5938;DHT22;2994;51.220;4.412;2022-12-11T05:21:14;5.93;70.26
5938;DHT22;2994;51.220;4.412;2022-12-11T05:23:39;5.92;70.25
5938;DHT22;2994;51.220;4.412;2022-12-11T05:26:12;5.93;70.18
5938;DHT22;2994;51.220;4.412;2022-12-11T05:28:39;5.94;70.07
5938;DHT22;2994;51.220;4.412;2022-12-11T05:31:17;5.91;70.06
5938;DHT22;2994;51.220;4.412;2022-12-11T05:33:43;5.92;69.93
5938;DHT22;2994;51.220;4.412;2022-12-11T05:36:15;5.91;69.97
5938;DHT22;2994;51.220;4.412;2022-12-11T05:38:41;5.91;69.83
5938;DHT22;2994;51.220;4.412;2022-12-11T05:41:06;5.92;69.74
5938;DHT22;2994;51.220;4.412;2022-12-11T05:43:34;5.90;69.80
5938;DHT22;2994;51.220;4.412;2022-12-11T05:46:23;5.87;69.89
5938;DHT22;2994;51.220;4.412;2022-12-11T05:48:51;5.86;69.76
5938;DHT22;2994;51.220;4.412;2022-12-11T05:51:18;5.85;69.74
5938;DHT22;2994;51.220;4.412;2022-12-11T05:53:45;5.86;69.74
5938;DHT22;2994;51.220;4.412;2022-12-11T05:56:12;5.89;69.71
5938;DHT22;2994;51.220;4.412;2022-12-11T05:58:39;5.86;69.82
5938;DHT22;2994;51.220;4.412;2022-12-11T06:01:34;5.85;70.01
5938;DHT22;2994;51.220;4.412;2022-12-11T06:03:59;5.87;69.73
5938;DHT22;2994;51.220;4.412;2022-12-11T06:06:25;5.89;69.81
5938;DHT22;2994;51.220;4.412;2022-12-11T06:08:52;5.87;69.68
5938;DHT22;2994;51.220;4.412;2022-12-11T06:11:19;5.86;69.79
5938;DHT22;2994;51.220;4.412;2022-12-11T06:13:45;5.75;70.13
5938;DHT22;2994;51.220;4.412;2022-12-11T06:16:10;5.83;69.89
5938;DHT22;2994;51.220;4.412;2022-12-11T06:18:37;5.84;69.94
5938;DHT22;2994;51.220;4.412;2022-12-11T06:21:13;5.85;69.93
5938;DHT22;2994;51.220;4.412;2022-12-11T06:23:39;5.80;70.24
5938;DHT22;2994;51.220;4.412;2022-12-11T06:26:06;5.85;69.91
5938;DHT22;2994;51.220;4.412;2022-12-11T06:28:31;5.85;69.86
5938;DHT22;2994;51.220;4.412;2022-12-11T06:30:58;5.85;69.92
5938;DHT22;2994;51.220;4.412;2022-12-11T06:33:23;5.85;69.99
5938;DHT22;2994;51.220;4.412;2022-12-11T06:35:49;5.86;69.91
5938;DHT22;2994;51.220;4.412;2022-12-11T06:38:15;5.86;69.84
5938;DHT22;2994;51.220;4.412;2022-12-11T06:40:40;5.90;69.83
5938;DHT22;2994;51.220;4.412;2022-12-11T06:43:06;5.90;69.78
5938;DHT22;2994;51.220;4.412;2022-12-11T06:45:31;5.90;69.84
5938;DHT22;2994;51.220;4.412;2022-12-11T06:47:57;5.90;69.81
5938;DHT22;2994;51.220;4.412;2022-12-11T06:50:22;5.89;69.90
5938;DHT22;2994;51.220;4.412;2022-12-11T06:52:48;5.89;69.89
5938;DHT22;2994;51.220;4.412;2022-12-11T06:55:13;5.90;69.74
5938;DHT22;2994;51.220;4.412;2022-12-11T06:57:39;5.90;69.83
5938;DHT22;2994;51.220;4.412;2022-12-11T07:00:05;5.90;69.76
5938;DHT22;2994;51.220;4.412;2022-12-11T07:02:30;5.86;69.89
5938;DHT22;2994;51.220;4.412;2022-12-11T07:04:56;5.89;69.86
5938;DHT22;2994;51.220;4.412;2022-12-11T07:07:22;5.90;69.86
5938;DHT22;2994;51.220;4.412;2022-12-11T07:09:47;5.90;69.87
5938;DHT22;2994;51.220;4.412;2022-12-11T07:12:13;5.90;69.88
5938;DHT22;2994;51.220;4.412;2022-12-11T07:14:38;5.90;69.80
5938;DHT22;2994;51.220;4.412;2022-12-11T07:17:03;5.91;69.90
5938;DHT22;2994;51.220;4.412;2022-12-11T07:19:29;5.93;69.84
5938;DHT22;2994;51.220;4.412;2022-12-11T07:21:55;5.95;69.84
5938;DHT22;2994;51.220;4.412;2022-12-11T07:24:20;5.95;69.80
5938;DHT22;2994;51.220;4.412;2022-12-11T07:26:46;5.95;69.73
5938;DHT22;2994;51.220;4.412;2022-12-11T07:29:11;5.95;69.85
5938;DHT22;2994;51.220;4.412;2022-12-11T07:31:37;5.94;69.79
5938;DHT22;2994;51.220;4.412;2022-12-11T07:34:04;5.87;70.09
5938;DHT22;2994;51.220;4.412;2022-12-11T07:36:31;5.92;69.78
5938;DHT22;2994;51.220;4.412;2022-12-11T07:38:58;5.92;69.72
5938;DHT22;2994;51.220;4.412;2022-12-11T07:41:24;5.90;69.81
5938;DHT22;2994;51.220;4.412;2022-12-11T07:43:52;5.92;69.74
5938;DHT22;2994;51.220;4.412;2022-12-11T07:46:20;5.94;69.77
5938;DHT22;2994;51.220;4.412;2022-12-11T07:48:47;5.95;69.51
5938;DHT22;2994;51.220;4.412;2022-12-11T07:51:21;5.95;69.40
5938;DHT22;2994;51.220;4.412;2022-12-11T07:53:49;5.96;69.32
5938;DHT22;2994;51.220;4.412;2022-12-11T07:56:16;5.93;69.23
5938;DHT22;2994;51.220;4.412;2022-12-11T07:58:42;5.94;69.27
5938;DHT22;2994;51.220;4.412;2022-12-11T08:01:12;5.95;69.07
5938;DHT22;2994;51.220;4.412;2022-12-11T08:03:39;5.96;69.00
5938;DHT22;2994;51.220;4.412;2022-12-11T08:06:05;5.93;69.02
5938;DHT22;2994;51.220;4.412;2022-12-11T08:08:31;5.95;69.03
5938;DHT22;2994;51.220;4.412;2022-12-11T08:11:03;5.96;69.00
5938;DHT22;2994;51.220;4.412;2022-12-11T08:13:29;5.96;68.95
5938;DHT22;2994;51.220;4.412;2022-12-11T08:15:54;5.95;68.96
5938;DHT22;2994;51.220;4.412;2022-12-11T08:18:20;5.95;68.83
5938;DHT22;2994;51.220;4.412;2022-12-11T08:20:45;5.94;68.69
5938;DHT22;2994;51.220;4.412;2022-12-11T08:23:11;5.93;68.85
5938;DHT22;2994;51.220;4.412;2022-12-11T08:25:36;5.94;68.92
5938;DHT22;2994;51.220;4.412;2022-12-11T08:28:02;5.89;68.89
5938;DHT22;2994;51.220;4.412;2022-12-11T08:30:27;5.90;68.68
5938;DHT22;2994;51.220;4.412;2022-12-11T08:32:53;5.93;68.65
5938;DHT22;2994;51.220;4.412;2022-12-11T08:35:18;5.92;68.75
5938;DHT22;2994;51.220;4.412;2022-12-11T08:37:44;5.92;68.68
5938;DHT22;2994;51.220;4.412;2022-12-11T08:40:09;5.94;68.61
5938;DHT22;2994;51.220;4.412;2022-12-11T08:42:36;5.94;68.63
5938;DHT22;2994;51.220;4.412;2022-12-11T08:45:02;5.95;68.84
5938;DHT22;2994;51.220;4.412;2022-12-11T08:47:27;5.98;68.71
5938;DHT22;2994;51.220;4.412;2022-12-11T08:49:53;5.95;68.86
5938;DHT22;2994;51.220;4.412;2022-12-11T08:52:18;6.00;68.73
5938;DHT22;2994;51.220;4.412;2022-12-11T08:54:44;6.00;68.64
5938;DHT22;2994;51.220;4.412;2022-12-11T08:57:09;5.99;68.51
5938;DHT22;2994;51.220;4.412;2022-12-11T08:59:34;6.00;68.43
5938;DHT22;2994;51.220;4.412;2022-12-11T09:02:00;6.02;68.46
5938;DHT22;2994;51.220;4.412;2022-12-11T09:04:34;6.02;68.31
5938;DHT22;2994;51.220;4.412;2022-12-11T09:07:00;6.04;68.23
5938;DHT22;2994;51.220;4.412;2022-12-11T09:09:25;6.04;68.23
5938;DHT22;2994;51.220;4.412;2022-12-11T09:11:51;6.05;68.01
5938;DHT22;2994;51.220;4.412;2022-12-11T09:14:16;6.06;68.01
5938;DHT22;2994;51.220;4.412;2022-12-11T09:16:42;6.06;68.07
5938;DHT22;2994;51.220;4.412;2022-12-11T09:19:11;6.08;67.93
5938;DHT22;2994;51.220;4.412;2022-12-11T09:21:38;6.07;67.96
5938;DHT22;2994;51.220;4.412;2022-12-11T09:24:04;6.08;67.91
5938;DHT22;2994;51.220;4.412;2022-12-11T09:26:29;6.08;67.94
5938;DHT22;2994;51.220;4.412;2022-12-11T09:28:55;6.09;67.68
5938;DHT22;2994;51.220;4.412;2022-12-11T09:31:23;6.12;67.73
5938;DHT22;2994;51.220;4.412;2022-12-11T09:33:50;6.14;67.52
5938;DHT22;2994;51.220;4.412;2022-12-11T09:36:16;6.12;67.36
5938;DHT22;2994;51.220;4.412;2022-12-11T09:38:42;6.12;66.75
5938;DHT22;2994;51.220;4.412;2022-12-11T09:41:32;6.13;67.00
5938;DHT22;2994;51.220;4.412;2022-12-11T09:46:28;6.17;66.45
5938;DHT22;2994;51.220;4.412;2022-12-11T09:48:53;6.20;66.33
5938;DHT22;2994;51.220;4.412;2022-12-11T09:51:26;6.19;66.33
5938;DHT22;2994;51.220;4.412;2022-12-11T09:53:55;6.11;66.30
5938;DHT22;2994;51.220;4.412;2022-12-11T09:56:41;6.16;66.10
5938;DHT22;2994;51.220;4.412;2022-12-11T10:02:02;6.13;65.34
5938;DHT22;2994;51.220;4.412;2022-12-11T10:04:53;6.13;65.62
5938;DHT22;2994;51.220;4.412;2022-12-11T10:07:47;6.11;65.56
5938;DHT22;2994;51.220;4.412;2022-12-11T10:10:40;6.09;65.36
5938;DHT22;2994;51.220;4.412;2022-12-11T10:13:21;6.07;65.35
5938;DHT22;2994;51.220;4.412;2022-12-11T10:18:31;5.81;65.81
5938;DHT22;2994;51.220;4.412;2022-12-11T10:21:00;5.94;65.27
5938;DHT22;2994;51.220;4.412;2022-12-11T10:23:33;5.97;65.24
5938;DHT22;2994;51.220;4.412;2022-12-11T10:26:27;5.99;65.36
5938;DHT22;2994;51.220;4.412;2022-12-11T10:28:52;5.98;65.44
5938;DHT22;2994;51.220;4.412;2022-12-11T10:31:27;6.01;65.10
5938;DHT22;2994;51.220;4.412;2022-12-11T10:34:04;6.01;64.85
5938;DHT22;2994;51.220;4.412;2022-12-11T10:36:37;6.01;64.93
5938;DHT22;2994;51.220;4.412;2022-12-11T10:39:12;5.99;64.94
5938;DHT22;2994;51.220;4.412;2022-12-11T10:41:42;5.98;64.76
5938;DHT22;2994;51.220;4.412;2022-12-11T10:44:37;6.00;65.08
5938;DHT22;2994;51.220;4.412;2022-12-11T10:47:11;5.95;64.83
5938;DHT22;2994;51.220;4.412;2022-12-11T10:49:42;5.97;64.93
5938;DHT22;2994;51.220;4.412;2022-12-11T10:52:11;5.96;64.63
5938;DHT22;2994;51.220;4.412;2022-12-11T10:54:39;5.95;64.86
5938;DHT22;2994;51.220;4.412;2022-12-11T10:57:10;5.96;64.81
5938;DHT22;2994;51.220;4.412;2022-12-11T10:59:44;5.92;64.77
5938;DHT22;2994;51.220;4.412;2022-12-11T11:02:29;5.93;64.51
5938;DHT22;2994;51.220;4.412;2022-12-11T11:04:57;5.91;64.52
5938;DHT22;2994;51.220;4.412;2022-12-11T11:07:28;5.91;64.40
5938;DHT22;2994;51.220;4.412;2022-12-11T11:12:46;5.87;64.58
5938;DHT22;2994;51.220;4.412;2022-12-11T11:15:27;5.87;64.66
5938;DHT22;2994;51.220;4.412;2022-12-11T11:17:55;5.87;64.52
5938;DHT22;2994;51.220;4.412;2022-12-11T11:20:26;5.90;64.50
5938;DHT22;2994;51.220;4.412;2022-12-11T11:22:57;5.93;64.50
5938;DHT22;2994;51.220;4.412;2022-12-11T11:25:25;5.94;64.41
5938;DHT22;2994;51.220;4.412;2022-12-11T11:27:54;5.97;64.15
5938;DHT22;2994;51.220;4.412;2022-12-11T11:30:52;5.98;63.46
5938;DHT22;2994;51.220;4.412;2022-12-11T11:33:19;5.99;63.67
5938;DHT22;2994;51.220;4.412;2022-12-11T11:35:59;6.04;63.85
5938;DHT22;2994;51.220;4.412;2022-12-11T11:38:36;6.02;63.84
5938;DHT22;2994;51.220;4.412;2022-12-11T11:41:24;6.05;63.94
5938;DHT22;2994;51.220;4.412;2022-12-11T11:43:58;6.09;63.84
5938;DHT22;2994;51.220;4.412;2022-12-11T11:46:37;6.08;63.69
5938;DHT22;2994;51.220;4.412;2022-12-11T11:49:21;6.10;63.70
5938;DHT22;2994;51.220;4.412;2022-12-11T11:51:55;6.09;63.76
5938;DHT22;2994;51.220;4.412;2022-12-11T11:54:51;6.14;63.80
5938;DHT22;2994;51.220;4.412;2022-12-11T11:57:33;6.19;63.56
5938;DHT22;2994;51.220;4.412;2022-12-11T12:00:18;6.17;63.50
5938;DHT22;2994;51.220;4.412;2022-12-11T12:02:46;6.17;63.38
5938;DHT22;2994;51.220;4.412;2022-12-11T12:05:14;6.20;63.40
5938;DHT22;2994;51.220;4.412;2022-12-11T12:07:51;6.17;63.37
5938;DHT22;2994;51.220;4.412;2022-12-11T12:10:34;6.20;63.15
5938;DHT22;2994;51.220;4.412;2022-12-11T12:13:05;6.14;63.18
5938;DHT22;2994;51.220;4.412;2022-12-11T12:15:50;6.16;63.15
5938;DHT22;2994;51.220;4.412;2022-12-11T12:21:39;6.17;62.82
5938;DHT22;2994;51.220;4.412;2022-12-11T12:24:04;6.22;63.03
5938;DHT22;2994;51.220;4.412;2022-12-11T12:26:37;6.23;62.63
5938;DHT22;2994;51.220;4.412;2022-12-11T12:32:12;6.26;62.80
5938;DHT22;2994;51.220;4.412;2022-12-11T12:38:15;6.28;62.79
5938;DHT22;2994;51.220;4.412;2022-12-11T12:48:56;6.27;62.84
5938;DHT22;2994;51.220;4.412;2022-12-11T12:51:24;6.29;62.82
5938;DHT22;2994;51.220;4.412;2022-12-11T12:54:01;6.29;63.02
5938;DHT22;2994;51.220;4.412;2022-12-11T12:56:29;6.31;62.89
5938;DHT22;2994;51.220;4.412;2022-12-11T12:58:56;6.29;62.94
5938;DHT22;2994;51.220;4.412;2022-12-11T13:01:23;6.31;63.05
5938;DHT22;2994;51.220;4.412;2022-12-11T13:04:03;6.33;63.04
5938;DHT22;2994;51.220;4.412;2022-12-11T13:06:38;6.34;62.83
5938;DHT22;2994;51.220;4.412;2022-12-11T13:11:43;6.38;62.13
5938;DHT22;2994;51.220;4.412;2022-12-11T13:16:39;6.41;61.57
5938;DHT22;2994;51.220;4.412;2022-12-11T13:24:48;6.43;60.89
5938;DHT22;2994;51.220;4.412;2022-12-11T13:27:38;6.42;60.54
5938;DHT22;2994;51.220;4.412;2022-12-11T13:32:41;6.43;60.70
5938;DHT22;2994;51.220;4.412;2022-12-11T13:35:15;6.43;60.69
5938;DHT22;2994;51.220;4.412;2022-12-11T13:37:43;6.44;60.95
5938;DHT22;2994;51.220;4.412;2022-12-11T13:42:48;6.44;60.91
5938;DHT22;2994;51.220;4.412;2022-12-11T13:45:21;6.42;60.67
5938;DHT22;2994;51.220;4.412;2022-12-11T13:47:47;6.41;60.62
5938;DHT22;2994;51.220;4.412;2022-12-11T13:50:21;6.41;60.80
5938;DHT22;2994;51.220;4.412;2022-12-11T13:52:55;6.42;60.84
5938;DHT22;2994;51.220;4.412;2022-12-11T13:55:32;6.41;60.84
5938;DHT22;2994;51.220;4.412;2022-12-11T13:57:58;6.40;60.84
5938;DHT22;2994;51.220;4.412;2022-12-11T14:00:27;6.41;60.89
5938;DHT22;2994;51.220;4.412;2022-12-11T14:02:55;6.39;60.86
5938;DHT22;2994;51.220;4.412;2022-12-11T14:05:22;6.38;60.92
5938;DHT22;2994;51.220;4.412;2022-12-11T14:07:50;6.40;61.34
5938;DHT22;2994;51.220;4.412;2022-12-11T14:10:23;6.42;61.14
5938;DHT22;2994;51.220;4.412;2022-12-11T14:12:54;6.44;61.04
5938;DHT22;2994;51.220;4.412;2022-12-11T14:15:21;6.43;61.29
5938;DHT22;2994;51.220;4.412;2022-12-11T14:17:47;6.35;61.62
5938;DHT22;2994;51.220;4.412;2022-12-11T14:20:22;6.40;61.61
5938;DHT22;2994;51.220;4.412;2022-12-11T14:22:48;6.40;61.67
5938;DHT22;2994;51.220;4.412;2022-12-11T14:25:23;6.39;61.77
5938;DHT22;2994;51.220;4.412;2022-12-11T14:27:54;6.40;61.86
5938;DHT22;2994;51.220;4.412;2022-12-11T14:30:32;6.40;61.99
5938;DHT22;2994;51.220;4.412;2022-12-11T14:33:02;6.37;62.15
5938;DHT22;2994;51.220;4.412;2022-12-11T14:35:35;6.37;62.38
5938;DHT22;2994;51.220;4.412;2022-12-11T14:38:16;6.39;62.70
5938;DHT22;2994;51.220;4.412;2022-12-11T14:40:44;6.36;63.04
5938;DHT22;2994;51.220;4.412;2022-12-11T14:43:15;6.38;63.12
5938;DHT22;2994;51.220;4.412;2022-12-11T14:45:46;6.36;63.08
5938;DHT22;2994;51.220;4.412;2022-12-11T14:48:20;6.38;63.13
5938;DHT22;2994;51.220;4.412;2022-12-11T14:50:51;6.37;63.31
5938;DHT22;2994;51.220;4.412;2022-12-11T14:53:23;6.34;63.58
5938;DHT22;2994;51.220;4.412;2022-12-11T14:55:50;6.33;63.53
5938;DHT22;2994;51.220;4.412;2022-12-11T14:58:20;6.30;63.63
5938;DHT22;2994;51.220;4.412;2022-12-11T15:01:06;6.31;63.69
5938;DHT22;2994;51.220;4.412;2022-12-11T15:03:36;6.31;63.78
5938;DHT22;2994;51.220;4.412;2022-12-11T15:06:20;6.30;63.76
5938;DHT22;2994;51.220;4.412;2022-12-11T15:08:46;6.30;64.01
5938;DHT22;2994;51.220;4.412;2022-12-11T15:11:14;6.30;64.09
5938;DHT22;2994;51.220;4.412;2022-12-11T15:13:53;6.28;64.11
5938;DHT22;2994;51.220;4.412;2022-12-11T15:16:21;6.28;64.15
5938;DHT22;2994;51.220;4.412;2022-12-11T15:18:49;6.26;64.38
5938;DHT22;2994;51.220;4.412;2022-12-11T15:21:15;6.15;64.68
5938;DHT22;2994;51.220;4.412;2022-12-11T15:23:52;6.21;64.66
5938;DHT22;2994;51.220;4.412;2022-12-11T15:26:20;6.21;64.57
5938;DHT22;2994;51.220;4.412;2022-12-11T15:29:00;6.22;64.50
5938;DHT22;2994;51.220;4.412;2022-12-11T15:31:29;6.21;64.72
5938;DHT22;2994;51.220;4.412;2022-12-11T15:33:54;6.19;65.02
5938;DHT22;2994;51.220;4.412;2022-12-11T15:36:24;6.23;64.96
5938;DHT22;2994;51.220;4.412;2022-12-11T15:38:51;6.23;65.20
5938;DHT22;2994;51.220;4.412;2022-12-11T15:41:18;6.23;65.20
5938;DHT22;2994;51.220;4.412;2022-12-11T15:43:49;6.25;65.24
5938;DHT22;2994;51.220;4.412;2022-12-11T15:46:15;6.24;65.33
5938;DHT22;2994;51.220;4.412;2022-12-11T15:48:41;6.23;65.49
5938;DHT22;2994;51.220;4.412;2022-12-11T15:51:08;6.22;65.50
5938;DHT22;2994;51.220;4.412;2022-12-11T15:53:33;6.24;65.56
5938;DHT22;2994;51.220;4.412;2022-12-11T15:55:59;6.23;65.60
5938;DHT22;2994;51.220;4.412;2022-12-11T15:58:25;6.22;65.63
5938;DHT22;2994;51.220;4.412;2022-12-11T16:00:52;6.08;66.15
5938;DHT22;2994;51.220;4.412;2022-12-11T16:03:19;6.16;65.85
5938;DHT22;2994;51.220;4.412;2022-12-11T16:05:49;6.20;65.88
5938;DHT22;2994;51.220;4.412;2022-12-11T16:08:19;6.19;65.88
5938;DHT22;2994;51.220;4.412;2022-12-11T16:10:45;6.16;65.90
5938;DHT22;2994;51.220;4.412;2022-12-11T16:13:12;6.17;65.97
5938;DHT22;2994;51.220;4.412;2022-12-11T16:15:42;6.15;66.11
5938;DHT22;2994;51.220;4.412;2022-12-11T16:18:15;6.16;66.05
5938;DHT22;2994;51.220;4.412;2022-12-11T16:20:42;6.16;66.19
5938;DHT22;2994;51.220;4.412;2022-12-11T16:23:08;6.14;66.27
5938;DHT22;2994;51.220;4.412;2022-12-11T16:25:36;6.16;66.22
5938;DHT22;2994;51.220;4.412;2022-12-11T16:28:02;6.17;66.07
5938;DHT22;2994;51.220;4.412;2022-12-11T16:30:28;6.19;66.12
5938;DHT22;2994;51.220;4.412;2022-12-11T16:32:54;6.17;65.97
5938;DHT22;2994;51.220;4.412;2022-12-11T16:35:20;6.16;65.91
5938;DHT22;2994;51.220;4.412;2022-12-11T16:37:52;6.15;66.02
5938;DHT22;2994;51.220;4.412;2022-12-11T16:40:19;6.13;66.12
5938;DHT22;2994;51.220;4.412;2022-12-11T16:42:45;6.15;65.96
5938;DHT22;2994;51.220;4.412;2022-12-11T16:45:13;6.16;65.95
5938;DHT22;2994;51.220;4.412;2022-12-11T16:47:39;6.14;65.88
5938;DHT22;2994;51.220;4.412;2022-12-11T16:50:05;6.15;65.91
5938;DHT22;2994;51.220;4.412;2022-12-11T16:52:31;6.12;66.01
5938;DHT22;2994;51.220;4.412;2022-12-11T16:54:57;6.13;66.11
5938;DHT22;2994;51.220;4.412;2022-12-11T16:57:23;6.15;66.00
5938;DHT22;2994;51.220;4.412;2022-12-11T16:59:49;6.12;66.19
5938;DHT22;2994;51.220;4.412;2022-12-11T17:02:14;6.15;66.12
5938;DHT22;2994;51.220;4.412;2022-12-11T17:04:40;6.13;66.10
5938;DHT22;2994;51.220;4.412;2022-12-11T17:07:06;6.12;66.14
5938;DHT22;2994;51.220;4.412;2022-12-11T17:09:31;6.10;66.24
5938;DHT22;2994;51.220;4.412;2022-12-11T17:11:57;6.10;66.15
5938;DHT22;2994;51.220;4.412;2022-12-11T17:14:23;6.09;65.99
5938;DHT22;2994;51.220;4.412;2022-12-11T17:16:48;6.10;65.85
5938;DHT22;2994;51.220;4.412;2022-12-11T17:19:14;6.08;65.86
5938;DHT22;2994;51.220;4.412;2022-12-11T17:21:40;6.07;65.91
5938;DHT22;2994;51.220;4.412;2022-12-11T17:24:07;6.10;65.89
5938;DHT22;2994;51.220;4.412;2022-12-11T17:26:33;6.09;66.01
5938;DHT22;2994;51.220;4.412;2022-12-11T17:28:59;6.09;65.97